createdAt,value
2019-04-30T00:01:18.824Z,53.60
2019-04-30T00:02:16.286Z,53.60
2019-04-30T00:04:20.445Z,54.60
2019-04-30T00:05:20.688Z,54.10
2019-04-30T00:07:24.921Z,52.70
2019-04-30T00:08:25.840Z,53.50
2019-04-30T00:10:36.027Z,51.50
2019-04-30T00:11:29.504Z,55.70
2019-04-30T00:13:35.726Z,56.80
2019-04-30T00:14:40.087Z,53.10
2019-04-30T00:16:39.872Z,55.10
2019-04-30T00:17:38.317Z,60.50
2019-04-30T00:19:42.476Z,54.40
2019-04-30T00:20:44.750Z,53.90
2019-04-30T00:22:50.331Z,50.80
2019-04-30T00:23:47.141Z,52.10
2019-04-30T00:25:51.307Z,53.30
2019-04-30T00:26:52.512Z,52.40
2019-04-30T00:28:55.694Z,57.70
2019-04-30T00:29:55.943Z,56.30
2019-04-30T00:31:49.041Z,60.20
2019-04-30T00:32:49.264Z,58.50
2019-04-30T00:34:53.421Z,68.00
2019-04-30T00:35:55.129Z,64.60
2019-04-30T00:38:00.216Z,64.80
2019-04-30T00:38:58.058Z,64.40
2019-04-30T00:41:06.822Z,63.20
2019-04-30T00:42:02.449Z,65.80
2019-04-30T00:44:07.633Z,66.00
2019-04-30T00:45:09.910Z,61.00
2019-04-30T00:47:12.045Z,61.30
2019-04-30T00:48:12.281Z,61.00
2019-04-30T00:50:16.438Z,59.20
2019-04-30T00:51:21.219Z,58.70
2019-04-30T00:53:20.844Z,59.40
2019-04-30T00:54:22.548Z,62.00
2019-04-30T00:56:28.188Z,63.60
2019-04-30T00:57:26.526Z,59.30
2019-04-30T00:59:30.658Z,59.70
2019-04-30T01:00:30.891Z,56.70
2019-04-30T01:02:35.755Z,54.80
2019-04-30T01:03:35.324Z,54.60
2019-04-30T01:05:43.547Z,56.20
2019-04-30T01:06:39.690Z,56.00
2019-04-30T01:08:46.107Z,55.00
2019-04-30T01:09:49.570Z,54.90
2019-04-30T01:11:39.762Z,56.50
2019-04-30T01:12:44.228Z,54.10
2019-04-30T01:14:41.596Z,53.20
2019-04-30T01:15:43.927Z,51.10
2019-04-30T01:17:50.929Z,49.70
2019-04-30T01:18:46.231Z,53.00
2019-04-30T01:20:50.390Z,56.60
2019-04-30T01:21:50.971Z,53.70
2019-04-30T01:23:54.900Z,54.60
2019-04-30T01:24:55.046Z,59.20
2019-04-30T01:27:02.108Z,60.80
2019-04-30T01:27:59.450Z,62.70
2019-04-30T01:30:03.606Z,64.20
2019-04-30T01:31:03.843Z,60.00
2019-04-30T01:33:09.154Z,59.80
2019-04-30T01:34:12.350Z,60.90
2019-04-30T01:36:13.446Z,59.70
2019-04-30T01:37:12.644Z,55.00
2019-04-30T01:39:16.817Z,60.10
2019-04-30T01:40:18.835Z,57.70
2019-04-30T01:42:21.227Z,59.50
2019-04-30T01:43:30.585Z,58.60
2019-04-30T01:45:28.201Z,52.90
2019-04-30T01:46:25.871Z,55.80
2019-04-30T01:48:30.048Z,55.00
2019-04-30T01:49:41.733Z,52.60
2019-04-30T01:51:23.355Z,53.20
2019-04-30T01:52:23.613Z,55.60
2019-04-30T01:54:29.165Z,53.30
2019-04-30T01:55:29.429Z,54.90
2019-04-30T01:57:32.170Z,54.40
2019-04-30T01:58:33.459Z,53.90
2019-04-30T02:00:36.575Z,50.30
2019-04-30T02:01:38.913Z,51.20
2019-04-30T02:03:40.990Z,54.70
2019-04-30T02:04:41.237Z,50.60
2019-04-30T02:06:45.393Z,52.90
2019-04-30T02:07:46.053Z,55.30
2019-04-30T02:09:49.777Z,54.00
2019-04-30T02:10:51.381Z,54.10
2019-04-30T02:12:54.374Z,56.10
2019-04-30T02:13:54.380Z,55.60
2019-04-30T02:15:59.230Z,53.20
2019-04-30T02:16:59.426Z,60.70
2019-04-30T02:19:02.951Z,60.40
2019-04-30T02:20:03.188Z,62.00
2019-04-30T02:21:56.263Z,60.10
2019-04-30T02:22:58.447Z,65.50
2019-04-30T02:25:00.693Z,63.90
2019-04-30T02:26:00.905Z,66.20
2019-04-30T02:28:05.054Z,66.70
2019-04-30T02:29:05.295Z,69.70
2019-04-30T02:31:09.489Z,69.80
2019-04-30T02:32:10.261Z,68.40
2019-04-30T02:34:13.906Z,76.20
2019-04-30T02:35:14.127Z,73.70
2019-04-30T02:37:21.059Z,80.80
2019-04-30T02:38:20.341Z,81.40
2019-04-30T02:40:23.704Z,88.60
2019-04-30T02:41:23.940Z,87.40
2019-04-30T02:43:30.043Z,87.90
2019-04-30T02:44:29.317Z,92.70
2019-04-30T02:46:33.534Z,89.20
2019-04-30T02:47:33.768Z,97.80
2019-04-30T02:49:39.790Z,111.30
2019-04-30T02:50:39.277Z,99.30
2019-04-30T02:52:42.309Z,102.80
2019-04-30T02:53:42.543Z,105.50
2019-04-30T02:55:46.720Z,104.90
2019-04-30T02:56:46.992Z,101.10
2019-04-30T02:58:51.125Z,105.50
2019-04-30T02:59:51.360Z,107.90
2019-04-30T03:01:44.506Z,108.40
2019-04-30T03:02:44.711Z,112.40
2019-04-30T03:04:50.259Z,114.50
2019-04-30T03:05:49.724Z,107.60
2019-04-30T03:07:53.670Z,112.60
2019-04-30T03:08:53.479Z,110.10
2019-04-30T03:10:59.903Z,108.60
2019-04-30T03:12:00.139Z,100.50
2019-04-30T03:14:02.054Z,103.80
2019-04-30T03:15:02.332Z,106.50
2019-04-30T03:17:06.444Z,91.80
2019-04-30T03:18:06.676Z,83.60
2019-04-30T03:20:20.222Z,96.10
2019-04-30T03:21:11.079Z,90.50
2019-04-30T03:23:15.244Z,92.20
2019-04-30T03:24:15.469Z,94.80
2019-04-30T03:26:20.101Z,103.00
2019-04-30T03:27:20.642Z,103.50
2019-04-30T03:29:24.246Z,106.10
2019-04-30T03:30:24.276Z,100.40
2019-04-30T03:32:31.610Z,104.40
2019-04-30T03:33:32.530Z,105.90
2019-04-30T03:35:32.956Z,107.90
2019-04-30T03:36:33.085Z,111.70
2019-04-30T03:38:39.672Z,113.00
2019-04-30T03:39:39.858Z,118.50
2019-04-30T03:41:33.442Z,123.70
2019-04-30T03:42:30.820Z,122.60
2019-04-30T03:44:34.984Z,119.80
2019-04-30T03:45:35.221Z,130.40
2019-04-30T03:47:42.849Z,118.60
2019-04-30T03:48:39.739Z,122.20
2019-04-30T03:50:53.470Z,131.30
2019-04-30T03:51:45.041Z,125.40
2019-04-30T03:53:50.139Z,124.00
2019-04-30T03:54:49.642Z,124.90
2019-04-30T03:56:53.608Z,125.50
2019-04-30T03:57:53.846Z,124.60
2019-04-30T03:59:59.422Z,122.00
2019-04-30T04:01:00.357Z,124.30
2019-04-30T04:03:02.414Z,120.10
2019-04-30T04:04:02.678Z,121.20
2019-04-30T04:06:09.257Z,120.60
2019-04-30T04:07:07.092Z,119.40
2019-04-30T04:09:11.239Z,115.20
2019-04-30T04:10:11.506Z,121.20
2019-04-30T04:12:04.579Z,122.10
2019-04-30T04:13:04.815Z,119.00
2019-04-30T04:15:10.397Z,122.30
2019-04-30T04:16:09.771Z,125.30
2019-04-30T04:18:13.365Z,113.50
2019-04-30T04:19:13.591Z,113.80
2019-04-30T04:21:20.679Z,116.10
2019-04-30T04:22:20.673Z,115.20
2019-04-30T04:24:23.163Z,119.80
2019-04-30T04:25:23.391Z,114.60
2019-04-30T04:27:30.187Z,112.20
2019-04-30T04:28:29.822Z,124.10
2019-04-30T04:30:32.982Z,111.20
2019-04-30T04:31:33.214Z,110.30
2019-04-30T04:33:39.551Z,110.60
2019-04-30T04:34:39.904Z,108.90
2019-04-30T04:36:43.311Z,116.60
2019-04-30T04:37:42.011Z,113.80
2019-04-30T04:39:46.146Z,117.60
2019-04-30T04:40:46.377Z,116.80
2019-04-30T04:42:51.560Z,115.70
2019-04-30T04:43:51.856Z,112.90
2019-04-30T04:45:59.304Z,101.70
2019-04-30T04:47:00.012Z,109.00
2019-04-30T04:49:01.368Z,101.00
2019-04-30T04:50:01.610Z,103.10
2019-04-30T04:51:54.711Z,105.20
2019-04-30T04:52:54.936Z,104.50
2019-04-30T04:55:00.320Z,96.40
2019-04-30T04:55:59.912Z,98.10
2019-04-30T04:58:03.517Z,94.20
2019-04-30T04:59:03.749Z,96.70
2019-04-30T05:01:11.691Z,94.20
2019-04-30T05:02:09.887Z,94.90
2019-04-30T05:04:13.322Z,90.60
2019-04-30T05:05:13.557Z,87.30
2019-04-30T05:07:19.575Z,89.60
2019-04-30T05:08:18.561Z,81.60
2019-04-30T05:10:23.302Z,88.50
2019-04-30T05:11:23.536Z,82.00
2019-04-30T05:13:29.051Z,80.90
2019-04-30T05:14:28.851Z,80.60
2019-04-30T05:16:32.599Z,77.80
2019-04-30T05:17:32.834Z,72.70
2019-04-30T05:19:38.544Z,72.50
2019-04-30T05:20:39.881Z,68.40
2019-04-30T05:22:41.923Z,71.70
2019-04-30T05:23:42.765Z,71.00
2019-04-30T05:25:46.300Z,64.30
2019-04-30T05:26:48.589Z,59.50
2019-04-30T05:28:52.810Z,61.60
2019-04-30T05:29:50.956Z,59.90
2019-04-30T05:31:44.020Z,56.00
2019-04-30T05:32:44.259Z,49.70
2019-04-30T05:34:49.695Z,55.70
2019-04-30T05:35:49.585Z,51.40
2019-04-30T05:37:52.839Z,50.80
2019-04-30T05:38:53.078Z,49.70
2019-04-30T05:40:57.229Z,49.60
2019-04-30T05:41:58.939Z,49.20
2019-04-30T05:44:01.642Z,46.20
2019-04-30T05:45:01.891Z,42.70
2019-04-30T05:47:07.064Z,45.00
2019-04-30T05:48:08.863Z,45.70
2019-04-30T05:50:11.450Z,41.10
2019-04-30T05:51:11.689Z,40.40
2019-04-30T05:53:15.875Z,39.00
2019-04-30T05:54:16.108Z,39.20
2019-04-30T05:56:21.270Z,36.00
2019-04-30T05:57:21.585Z,36.40
2019-04-30T05:59:25.757Z,34.80
2019-04-30T06:00:25.994Z,34.20
2019-04-30T06:02:33.759Z,35.10
2019-04-30T06:03:33.205Z,33.80
2019-04-30T06:05:34.558Z,34.30
2019-04-30T06:06:34.794Z,31.80
2019-04-30T06:08:39.317Z,30.90
2019-04-30T06:09:39.207Z,28.60
2019-04-30T06:11:32.318Z,28.90
2019-04-30T06:12:32.519Z,33.10
2019-04-30T06:14:46.667Z,29.40
2019-04-30T06:15:38.974Z,30.70
2019-04-30T06:17:41.141Z,28.80
2019-04-30T06:18:42.340Z,24.70
2019-04-30T06:20:45.536Z,28.90
2019-04-30T06:21:45.781Z,24.80
2019-04-30T06:23:49.950Z,24.40
2019-04-30T06:24:50.190Z,25.10
2019-04-30T06:26:55.338Z,25.10
2019-04-30T06:27:55.577Z,24.40
2019-04-30T06:29:59.755Z,22.10
2019-04-30T06:30:59.990Z,20.30
2019-04-30T06:33:04.162Z,20.80
2019-04-30T06:34:04.402Z,19.40
2019-04-30T06:36:10.978Z,20.30
2019-04-30T06:37:09.634Z,18.30
2019-04-30T06:39:12.972Z,17.80
2019-04-30T06:40:13.216Z,18.70
2019-04-30T06:42:10.184Z,18.10
2019-04-30T06:43:06.531Z,17.60
2019-04-30T06:45:10.733Z,17.10
2019-04-30T06:46:10.984Z,16.70
2019-04-30T06:48:15.156Z,17.70
2019-04-30T06:49:15.394Z,17.10
2019-04-30T06:51:19.552Z,18.20
2019-04-30T06:52:23.039Z,19.10
2019-04-30T06:54:23.961Z,14.50
2019-04-30T06:55:24.199Z,17.10
2019-04-30T06:57:29.515Z,14.80
2019-04-30T06:58:29.193Z,14.10
2019-04-30T07:00:35.533Z,14.40
2019-04-30T07:01:33.020Z,14.00
2019-04-30T07:03:38.781Z,12.60
2019-04-30T07:04:37.438Z,12.70
2019-04-30T07:06:45.109Z,13.90
2019-04-30T07:07:41.873Z,12.50
2019-04-30T07:09:53.247Z,13.20
2019-04-30T07:10:55.012Z,14.30
2019-04-30T07:12:50.432Z,13.60
2019-04-30T07:13:52.303Z,15.70
2019-04-30T07:15:54.861Z,12.50
2019-04-30T07:16:55.090Z,12.30
2019-04-30T07:18:59.276Z,13.70
2019-04-30T07:19:59.799Z,13.80
2019-04-30T07:21:52.608Z,11.10
2019-04-30T07:23:00.197Z,11.50
2019-04-30T07:24:57.039Z,10.10
2019-04-30T07:25:58.991Z,12.10
2019-04-30T07:28:01.457Z,10.40
2019-04-30T07:29:02.537Z,12.40
2019-04-30T07:31:13.169Z,14.10
2019-04-30T07:32:06.132Z,10.40
2019-04-30T07:34:11.348Z,9.20
2019-04-30T07:35:11.587Z,11.00
2019-04-30T07:37:21.088Z,8.90
2019-04-30T07:38:15.996Z,10.00
2019-04-30T07:40:20.187Z,9.50
2019-04-30T07:41:20.432Z,9.20
2019-04-30T07:43:24.598Z,7.90
2019-04-30T07:44:33.835Z,10.70
2019-04-30T07:46:30.052Z,7.70
2019-04-30T07:47:29.688Z,8.80
2019-04-30T07:49:46.999Z,7.90
2019-04-30T07:50:34.384Z,8.30
2019-04-30T07:52:57.651Z,9.00
2019-04-30T07:53:40.384Z,7.70
2019-04-30T07:55:43.328Z,8.40
2019-04-30T07:56:43.592Z,12.60
2019-04-30T07:58:50.254Z,8.90
2019-04-30T07:59:49.863Z,7.30
2019-04-30T08:02:00.508Z,8.90
2019-04-30T08:02:43.614Z,7.30
2019-04-30T08:04:45.560Z,7.00
2019-04-30T08:05:45.821Z,6.80
2019-04-30T08:07:50.105Z,7.30
2019-04-30T08:08:51.653Z,6.90
2019-04-30T08:10:54.415Z,7.30
2019-04-30T08:11:54.668Z,6.90
2019-04-30T08:13:59.344Z,7.30
2019-04-30T08:14:59.550Z,6.20
2019-04-30T08:17:03.285Z,6.10
2019-04-30T08:18:05.951Z,6.20
2019-04-30T08:20:08.757Z,8.50
2019-04-30T08:21:09.512Z,6.20
2019-04-30T08:23:20.126Z,7.90
2019-04-30T08:24:12.400Z,7.50
2019-04-30T08:26:18.591Z,6.70
2019-04-30T08:27:16.841Z,6.60
2019-04-30T08:29:21.019Z,6.00
2019-04-30T08:30:26.455Z,6.40
2019-04-30T08:32:25.470Z,6.20
2019-04-30T08:33:25.716Z,6.70
2019-04-30T08:35:29.915Z,6.60
2019-04-30T08:36:32.958Z,7.30
2019-04-30T08:38:34.341Z,6.30
2019-04-30T08:39:34.593Z,6.10
2019-04-30T08:41:29.280Z,6.30
2019-04-30T08:42:31.711Z,9.80
2019-04-30T08:44:32.143Z,6.50
2019-04-30T08:45:34.788Z,8.70
2019-04-30T08:47:36.589Z,6.40
2019-04-30T08:48:49.961Z,6.50
2019-04-30T08:50:41.116Z,9.20
2019-04-30T08:51:41.634Z,10.10
2019-04-30T08:53:45.465Z,6.40
2019-04-30T08:54:45.715Z,6.30
2019-04-30T08:56:50.374Z,6.60
2019-04-30T08:57:50.229Z,5.50
2019-04-30T08:59:54.344Z,5.80
2019-04-30T09:00:54.597Z,5.50
2019-04-30T09:02:59.343Z,4.20
2019-04-30T09:03:59.699Z,4.80
2019-04-30T09:06:03.242Z,5.50
2019-04-30T09:07:03.493Z,4.80
2019-04-30T09:09:10.681Z,5.10
2019-04-30T09:10:09.261Z,4.00
2019-04-30T09:12:01.049Z,4.10
2019-04-30T09:13:01.299Z,3.90
2019-04-30T09:15:05.477Z,5.90
2019-04-30T09:16:05.725Z,7.10
2019-04-30T09:18:12.540Z,3.90
2019-04-30T09:19:10.181Z,4.30
2019-04-30T09:21:14.384Z,7.10
2019-04-30T09:22:15.306Z,5.50
2019-04-30T09:24:19.177Z,3.20
2019-04-30T09:25:19.553Z,4.10
2019-04-30T09:27:23.266Z,3.80
2019-04-30T09:28:23.512Z,4.80
2019-04-30T09:30:29.806Z,3.60
2019-04-30T09:31:29.666Z,5.30
2019-04-30T09:33:32.146Z,4.50
2019-04-30T09:34:32.396Z,4.20
2019-04-30T09:36:36.589Z,5.30
2019-04-30T09:37:36.845Z,3.50
2019-04-30T09:39:41.034Z,4.60
2019-04-30T09:40:41.739Z,3.80
2019-04-30T09:42:45.486Z,6.20
2019-04-30T09:43:45.741Z,5.10
2019-04-30T09:45:49.914Z,4.00
2019-04-30T09:46:50.166Z,4.80
2019-04-30T09:48:54.368Z,9.40
2019-04-30T09:49:54.618Z,3.70
2019-04-30T09:51:49.603Z,3.80
2019-04-30T09:52:49.684Z,3.70
2019-04-30T09:54:52.432Z,4.40
2019-04-30T09:55:52.434Z,3.90
2019-04-30T09:57:58.735Z,4.80
2019-04-30T09:58:56.887Z,4.20
2019-04-30T10:01:01.077Z,4.20
2019-04-30T10:02:01.327Z,3.50
2019-04-30T10:04:06.358Z,7.10
2019-04-30T10:05:06.792Z,4.30
2019-04-30T10:07:10.485Z,3.40
2019-04-30T10:08:10.727Z,2.70
2019-04-30T10:10:14.909Z,3.60
2019-04-30T10:11:15.161Z,5.20
2019-04-30T10:13:19.453Z,5.30
2019-04-30T10:14:19.709Z,4.80
2019-04-30T10:16:23.871Z,2.90
2019-04-30T10:17:24.125Z,2.90
2019-04-30T10:19:29.258Z,2.90
2019-04-30T10:20:28.579Z,3.30
2019-04-30T10:22:32.786Z,3.30
2019-04-30T10:23:33.031Z,3.20
2019-04-30T10:25:37.204Z,3.10
2019-04-30T10:26:37.459Z,2.60
2019-04-30T10:28:41.666Z,3.90
2019-04-30T10:29:41.917Z,2.90
2019-04-30T10:31:36.064Z,5.50
2019-04-30T10:32:36.315Z,3.60
2019-04-30T10:34:40.501Z,4.00
2019-04-30T10:35:40.758Z,3.30
2019-04-30T10:37:44.969Z,3.30
2019-04-30T10:38:45.222Z,3.50
2019-04-30T10:40:49.430Z,3.30
2019-04-30T10:41:49.671Z,4.50
2019-04-30T10:43:53.875Z,2.90
2019-04-30T10:44:54.129Z,2.30
2019-04-30T10:46:59.465Z,2.50
2019-04-30T10:47:59.606Z,2.30
2019-04-30T10:50:03.784Z,3.40
2019-04-30T10:51:04.037Z,2.50
2019-04-30T10:53:09.147Z,1.90
2019-04-30T10:54:08.898Z,2.30
2019-04-30T10:56:12.809Z,1.70
2019-04-30T10:57:12.936Z,2.10
2019-04-30T10:59:17.150Z,2.90
2019-04-30T11:00:18.630Z,2.50
2019-04-30T11:02:21.620Z,2.10
2019-04-30T11:03:23.084Z,2.40
2019-04-30T11:05:26.055Z,2.50
2019-04-30T11:06:26.312Z,2.10
2019-04-30T11:08:30.525Z,3.60
2019-04-30T11:09:30.996Z,2.90
2019-04-30T11:11:24.393Z,3.00
2019-04-30T11:12:24.647Z,3.20
2019-04-30T11:14:28.858Z,2.60
2019-04-30T11:15:29.324Z,4.00
2019-04-30T11:17:33.449Z,2.30
2019-04-30T11:18:33.732Z,3.70
2019-04-30T11:20:39.721Z,2.70
2019-04-30T11:21:38.713Z,2.10
2019-04-30T11:23:42.878Z,2.40
2019-04-30T11:24:56.647Z,2.80
2019-04-30T11:26:49.538Z,2.80
2019-04-30T11:27:50.154Z,2.60
2019-04-30T11:29:51.808Z,4.30
2019-04-30T11:30:51.994Z,2.70
2019-04-30T11:32:56.259Z,5.30
2019-04-30T11:33:56.339Z,2.40
2019-04-30T11:36:02.985Z,2.80
2019-04-30T11:37:00.773Z,2.60
2019-04-30T11:39:04.978Z,2.40
2019-04-30T11:40:05.233Z,2.60
2019-04-30T11:41:58.346Z,2.40
2019-04-30T11:42:58.600Z,3.00
2019-04-30T11:45:02.804Z,2.70
2019-04-30T11:46:03.056Z,4.10
2019-04-30T11:48:08.984Z,2.40
2019-04-30T11:49:09.563Z,3.00
2019-04-30T11:51:11.737Z,2.30
2019-04-30T11:52:11.989Z,3.30
2019-04-30T11:54:16.200Z,3.20
2019-04-30T11:55:16.453Z,3.80
2019-04-30T11:57:20.637Z,2.90
2019-04-30T11:58:21.998Z,2.80
2019-04-30T12:00:25.093Z,3.30
2019-04-30T12:01:25.349Z,2.70
2019-04-30T12:03:30.398Z,4.10
2019-04-30T12:04:30.014Z,4.30
2019-04-30T12:06:33.982Z,3.30
2019-04-30T12:07:34.238Z,3.30
2019-04-30T12:09:38.629Z,2.80
2019-04-30T12:10:39.202Z,3.60
2019-04-30T12:12:42.881Z,5.40
2019-04-30T12:13:43.137Z,2.70
2019-04-30T12:15:50.022Z,2.50
2019-04-30T12:16:47.617Z,2.50
2019-04-30T12:18:51.824Z,2.60
2019-04-30T12:19:52.077Z,4.70
2019-04-30T12:21:45.193Z,2.40
2019-04-30T12:22:45.452Z,2.50
2019-04-30T12:25:02.056Z,3.40
2019-04-30T12:25:49.917Z,3.20
2019-04-30T12:27:55.113Z,2.90
2019-04-30T12:28:55.366Z,3.60
2019-04-30T12:30:59.574Z,4.00
2019-04-30T12:31:59.829Z,3.50
2019-04-30T12:34:04.037Z,4.70
2019-04-30T12:35:04.292Z,3.50
2019-04-30T12:37:10.632Z,3.50
2019-04-30T12:38:08.893Z,2.90
2019-04-30T12:40:25.784Z,2.40
2019-04-30T12:41:13.238Z,2.60
2019-04-30T12:43:17.424Z,3.40
2019-04-30T12:44:17.675Z,3.40
2019-04-30T12:46:21.896Z,3.20
2019-04-30T12:47:22.148Z,2.90
2019-04-30T12:49:26.359Z,2.70
2019-04-30T12:50:26.614Z,4.50
2019-04-30T12:52:30.796Z,3.70
2019-04-30T12:53:31.052Z,2.60
2019-04-30T12:55:35.262Z,3.10
2019-04-30T12:56:35.518Z,3.40
2019-04-30T12:58:39.701Z,4.90
2019-04-30T12:59:39.954Z,3.60
2019-04-30T13:01:34.207Z,5.80
2019-04-30T13:02:33.337Z,5.50
2019-04-30T13:04:39.407Z,4.30
2019-04-30T13:05:39.599Z,4.60
2019-04-30T13:07:42.452Z,3.50
2019-04-30T13:08:42.705Z,5.40
2019-04-30T13:10:46.949Z,5.00
2019-04-30T13:11:47.288Z,4.50
2019-04-30T13:13:51.303Z,3.60
2019-04-30T13:14:54.552Z,4.30
2019-04-30T13:16:55.341Z,4.00
2019-04-30T13:17:55.613Z,3.70
2019-04-30T13:19:59.821Z,4.30
2019-04-30T13:21:00.187Z,3.80
2019-04-30T13:23:04.258Z,5.50
2019-04-30T13:24:04.512Z,4.20
2019-04-30T13:26:09.021Z,5.20
2019-04-30T13:27:09.491Z,4.70
2019-04-30T13:29:13.154Z,5.30
2019-04-30T13:30:13.407Z,4.30
2019-04-30T13:32:08.532Z,3.50
2019-04-30T13:33:06.811Z,3.60
2019-04-30T13:35:12.021Z,3.90
2019-04-30T13:36:12.274Z,4.80
2019-04-30T13:38:16.454Z,8.70
2019-04-30T13:39:16.704Z,4.10
2019-04-30T13:41:20.911Z,4.50
2019-04-30T13:42:21.169Z,3.70
2019-04-30T13:44:25.348Z,4.00
2019-04-30T13:45:25.601Z,5.10
2019-04-30T13:47:29.805Z,4.70
2019-04-30T13:48:30.073Z,4.80
2019-04-30T13:50:35.303Z,3.90
2019-04-30T13:51:35.553Z,4.50
2019-04-30T13:53:39.805Z,3.70
2019-04-30T13:54:40.064Z,4.60
2019-04-30T13:56:44.408Z,3.70
2019-04-30T13:57:44.829Z,5.30
2019-04-30T13:59:50.827Z,4.00
2019-04-30T14:00:49.522Z,3.80
2019-04-30T14:02:53.558Z,4.40
2019-04-30T14:03:53.918Z,5.60
2019-04-30T14:05:59.400Z,4.40
2019-04-30T14:06:58.648Z,4.70
2019-04-30T14:09:02.839Z,3.90
2019-04-30T14:10:03.092Z,4.70
2019-04-30T14:11:56.225Z,4.20
2019-04-30T14:12:56.480Z,5.70
2019-04-30T14:15:00.656Z,5.00
2019-04-30T14:16:00.915Z,4.10
2019-04-30T14:18:05.117Z,4.90
2019-04-30T14:19:05.366Z,5.60
2019-04-30T14:21:09.564Z,5.50
2019-04-30T14:22:09.822Z,4.70
2019-04-30T14:24:13.998Z,4.80
2019-04-30T14:25:14.252Z,5.10
2019-04-30T14:27:18.453Z,4.80
2019-04-30T14:28:19.119Z,4.50
2019-04-30T14:30:22.886Z,4.80
2019-04-30T14:31:23.138Z,6.00
2019-04-30T14:33:29.237Z,4.60
2019-04-30T14:34:28.579Z,6.60
2019-04-30T14:36:31.794Z,7.60
2019-04-30T14:37:32.044Z,5.60
2019-04-30T14:39:36.391Z,6.50
2019-04-30T14:40:36.990Z,6.10
2019-04-30T14:42:41.043Z,5.30
2019-04-30T14:43:42.706Z,5.70
2019-04-30T14:45:45.566Z,4.50
2019-04-30T14:46:45.430Z,4.90
2019-04-30T14:48:50.977Z,4.90
2019-04-30T14:50:01.249Z,4.90
2019-04-30T14:51:42.941Z,5.50
2019-04-30T14:52:43.191Z,7.10
2019-04-30T14:54:50.168Z,5.50
2019-04-30T14:55:49.435Z,4.50
2019-04-30T14:57:51.825Z,5.50
2019-04-30T14:58:52.071Z,5.80
2019-04-30T15:00:56.246Z,4.50
2019-04-30T15:01:56.496Z,6.50
2019-04-30T15:04:00.700Z,5.50
2019-04-30T15:05:00.951Z,5.20
2019-04-30T15:07:06.163Z,4.70
2019-04-30T15:08:08.485Z,6.30
2019-04-30T15:10:10.591Z,5.50
2019-04-30T15:11:10.841Z,5.40
2019-04-30T15:13:15.046Z,5.50
2019-04-30T15:14:15.296Z,6.20
2019-04-30T15:16:19.478Z,9.60
2019-04-30T15:17:19.731Z,11.20
2019-04-30T15:19:23.931Z,5.60
2019-04-30T15:20:24.179Z,5.70
2019-04-30T15:22:29.056Z,5.80
2019-04-30T15:23:28.628Z,5.60
2019-04-30T15:25:34.515Z,5.40
2019-04-30T15:26:33.064Z,5.80
2019-04-30T15:28:39.286Z,5.60
2019-04-30T15:29:39.192Z,5.20
2019-04-30T15:31:30.630Z,5.90
2019-04-30T15:32:30.885Z,5.80
2019-04-30T15:34:35.062Z,6.60
2019-04-30T15:35:35.311Z,5.50
2019-04-30T15:37:39.510Z,5.50
2019-04-30T15:38:39.762Z,5.50
2019-04-30T15:40:43.937Z,5.60
2019-04-30T15:41:44.190Z,5.20
2019-04-30T15:43:48.391Z,6.20
2019-04-30T15:44:49.693Z,9.40
2019-04-30T15:46:52.846Z,4.90
2019-04-30T15:47:53.096Z,5.60
2019-04-30T15:49:57.272Z,5.80
2019-04-30T15:50:59.029Z,5.60
2019-04-30T15:53:01.718Z,5.20
2019-04-30T15:54:01.972Z,5.30
2019-04-30T15:56:06.146Z,10.00
2019-04-30T15:57:06.398Z,7.50
2019-04-30T15:59:11.606Z,6.80
2019-04-30T16:00:11.855Z,5.50
2019-04-30T16:02:05.000Z,5.90
2019-04-30T16:03:05.236Z,8.10
2019-04-30T16:05:09.408Z,6.40
2019-04-30T16:06:10.468Z,5.20
2019-04-30T16:08:13.854Z,5.70
2019-04-30T16:09:14.105Z,4.80
2019-04-30T16:11:19.452Z,6.10
2019-04-30T16:12:20.210Z,5.20
2019-04-30T16:14:22.724Z,5.30
2019-04-30T16:15:22.976Z,5.70
2019-04-30T16:17:29.177Z,5.50
2019-04-30T16:18:30.184Z,6.00
2019-04-30T16:20:32.593Z,6.60
2019-04-30T16:21:32.844Z,5.50
2019-04-30T16:23:38.630Z,5.30
2019-04-30T16:24:38.662Z,6.30
2019-04-30T16:26:49.490Z,7.20
2019-04-30T16:27:41.712Z,6.60
2019-04-30T16:29:46.919Z,6.20
2019-04-30T16:30:47.453Z,6.30
2019-04-30T16:32:51.367Z,6.00
2019-04-30T16:33:51.617Z,9.60
2019-04-30T16:35:55.789Z,5.00
2019-04-30T16:36:56.041Z,6.60
2019-04-30T16:39:00.242Z,7.70
2019-04-30T16:40:00.488Z,6.80
2019-04-30T16:41:53.594Z,5.70
2019-04-30T16:42:53.845Z,5.90
2019-04-30T16:45:00.541Z,7.50
2019-04-30T16:45:58.882Z,5.30
2019-04-30T16:48:02.492Z,6.90
2019-04-30T16:49:02.742Z,6.30
2019-04-30T16:51:09.110Z,6.70
2019-04-30T16:52:09.193Z,8.30
2019-04-30T16:54:11.362Z,6.60
2019-04-30T16:55:11.611Z,7.30
2019-04-30T16:57:15.783Z,9.80
2019-04-30T16:58:16.044Z,7.50
2019-04-30T17:00:20.274Z,7.20
2019-04-30T17:01:20.474Z,7.50
2019-04-30T17:03:25.718Z,7.00
2019-04-30T17:04:25.973Z,7.00
2019-04-30T17:06:30.144Z,8.00
2019-04-30T17:07:30.442Z,7.60
2019-04-30T17:09:34.638Z,13.20
2019-04-30T17:10:34.889Z,10.90
2019-04-30T17:12:39.064Z,10.60
2019-04-30T17:13:39.296Z,9.80
2019-04-30T17:15:43.484Z,8.30
2019-04-30T17:16:43.840Z,7.90
2019-04-30T17:18:49.987Z,8.40
2019-04-30T17:19:49.204Z,8.10
2019-04-30T17:21:41.370Z,8.10
2019-04-30T17:22:41.619Z,9.10
2019-04-30T17:24:45.823Z,8.70
2019-04-30T17:25:46.062Z,9.80
2019-04-30T17:27:50.230Z,8.60
2019-04-30T17:28:50.499Z,9.20
2019-04-30T17:30:54.666Z,10.80
2019-04-30T17:31:54.905Z,7.70
2019-04-30T17:33:59.595Z,7.60
2019-04-30T17:34:59.834Z,7.40
2019-04-30T17:37:04.047Z,7.10
2019-04-30T17:38:04.247Z,9.30
2019-04-30T17:40:09.394Z,8.80
2019-04-30T17:41:09.168Z,7.80
2019-04-30T17:43:14.346Z,7.40
2019-04-30T17:44:14.595Z,10.10
2019-04-30T17:46:20.225Z,9.90
2019-04-30T17:47:19.030Z,9.40
2019-04-30T17:49:23.215Z,8.70
2019-04-30T17:50:23.467Z,8.30
2019-04-30T17:52:29.677Z,8.00
2019-04-30T17:53:28.766Z,12.20
2019-04-30T17:55:32.079Z,7.30
2019-04-30T17:56:32.307Z,9.70
2019-04-30T17:58:36.962Z,7.30
2019-04-30T17:59:37.204Z,7.70
2019-04-30T18:01:30.835Z,8.30
2019-04-30T18:02:31.081Z,7.50
2019-04-30T18:04:35.263Z,12.90
2019-04-30T18:05:35.514Z,10.30
2019-04-30T18:07:39.675Z,8.10
2019-04-30T18:08:39.918Z,9.40
2019-04-30T18:10:44.137Z,8.50
2019-04-30T18:11:44.343Z,8.70
2019-04-30T18:13:50.596Z,9.30
2019-04-30T18:14:49.517Z,12.20
2019-04-30T18:16:52.940Z,11.30
2019-04-30T18:17:53.227Z,12.40
2019-04-30T18:19:57.933Z,12.40
2019-04-30T18:20:59.369Z,11.00
2019-04-30T18:23:02.261Z,11.90
2019-04-30T18:24:02.506Z,12.00
2019-04-30T18:26:06.692Z,13.10
2019-04-30T18:27:06.943Z,12.30
2019-04-30T18:29:11.104Z,12.90
2019-04-30T18:30:11.359Z,12.30
2019-04-30T18:32:04.470Z,17.80
2019-04-30T18:33:04.714Z,14.70
2019-04-30T18:35:08.875Z,14.10
2019-04-30T18:36:09.573Z,13.20
2019-04-30T18:38:13.303Z,12.70
2019-04-30T18:39:13.554Z,13.20
2019-04-30T18:41:19.353Z,13.00
2019-04-30T18:42:19.348Z,13.00
2019-04-30T18:44:22.165Z,12.20
2019-04-30T18:45:22.431Z,13.50
2019-04-30T18:47:27.107Z,14.20
2019-04-30T18:48:29.380Z,14.60
2019-04-30T18:50:31.535Z,11.60
2019-04-30T18:51:38.918Z,11.50
2019-04-30T18:53:36.013Z,13.30
2019-04-30T18:54:36.220Z,14.70
2019-04-30T18:56:40.606Z,14.00
2019-04-30T18:57:40.837Z,14.10
2019-04-30T18:59:45.511Z,14.70
2019-04-30T19:00:45.751Z,15.60
2019-04-30T19:02:50.419Z,14.90
2019-04-30T19:03:50.670Z,16.40
2019-04-30T19:05:54.855Z,15.90
2019-04-30T19:06:55.097Z,16.20
2019-04-30T19:09:00.294Z,15.70
2019-04-30T19:09:59.507Z,16.40
2019-04-30T19:11:52.680Z,15.70
2019-04-30T19:12:52.926Z,16.30
2019-04-30T19:14:59.047Z,18.90
2019-04-30T19:16:21.836Z,22.10
2019-04-30T19:18:01.630Z,19.00
2019-04-30T19:19:01.799Z,19.00
2019-04-30T19:21:05.986Z,17.90
2019-04-30T19:22:06.204Z,20.00
2019-04-30T19:24:10.426Z,18.70
2019-04-30T19:25:10.684Z,19.30
2019-04-30T19:27:14.981Z,19.10
2019-04-30T19:28:15.243Z,21.20
2019-04-30T19:30:20.373Z,16.10
2019-04-30T19:31:20.609Z,17.70
2019-04-30T19:33:24.843Z,13.70
2019-04-30T19:34:25.053Z,14.10
2019-04-30T19:36:37.289Z,14.00
2019-04-30T19:37:30.116Z,14.40
2019-04-30T19:39:34.257Z,19.10
2019-04-30T19:40:34.488Z,18.00
2019-04-30T19:42:39.525Z,20.30
2019-04-30T19:43:39.204Z,19.20
2019-04-30T19:45:43.083Z,20.90
2019-04-30T19:46:43.322Z,18.90
2019-04-30T19:48:50.506Z,21.00
2019-04-30T19:49:48.857Z,22.70
2019-04-30T19:51:41.398Z,21.70
2019-04-30T19:52:41.623Z,23.00
2019-04-30T19:54:45.906Z,23.00
2019-04-30T19:55:46.097Z,26.20
2019-04-30T19:57:51.092Z,23.90
2019-04-30T19:59:01.677Z,24.80